createdAt,value
2022-09-18T00:01:37.055Z,92.53
2022-09-18T00:04:07.579Z,92.13
2022-09-18T00:06:39.162Z,91.23
2022-09-18T00:09:12.337Z,90.56
2022-09-18T00:11:43.731Z,91.84
2022-09-18T00:14:15.745Z,92.04
2022-09-18T00:16:43.410Z,90.68
2022-09-18T00:19:13.950Z,89.74
2022-09-18T00:21:46.370Z,90.83
2022-09-18T00:24:14.110Z,90.93
2022-09-18T00:26:41.284Z,90.61
2022-09-18T00:29:08.381Z,89.82
2022-09-18T00:31:53.116Z,89.53
2022-09-18T00:34:48.613Z,90.27
2022-09-18T00:37:28.658Z,90.16
2022-09-18T00:40:20.347Z,89.64
2022-09-18T00:42:50.214Z,89.94
2022-09-18T00:45:33.132Z,88.90
2022-09-18T00:48:24.741Z,87.51
2022-09-18T00:54:36.672Z,87.89
2022-09-18T00:57:22.803Z,87.85
2022-09-18T01:00:03.233Z,87.43
2022-09-18T01:02:41.021Z,88.93
2022-09-18T01:05:25.756Z,88.24
2022-09-18T01:08:39.534Z,89.12
2022-09-18T01:11:56.183Z,88.07
2022-09-18T01:15:11.719Z,88.68
2022-09-18T01:18:27.059Z,90.65
2022-09-18T01:22:06.743Z,89.88
2022-09-18T01:25:26.349Z,90.82
2022-09-18T01:28:39.215Z,90.48
2022-09-18T01:32:08.573Z,91.27
2022-09-18T01:38:14.637Z,91.26
2022-09-18T01:41:05.192Z,90.82
2022-09-18T01:44:12.888Z,89.96
2022-09-18T01:47:09.176Z,90.01
2022-09-18T01:50:08.561Z,89.92
2022-09-18T01:53:33.867Z,91.26
2022-09-18T01:59:10.491Z,89.67
2022-09-18T02:01:51.712Z,88.70
2022-09-18T02:04:56.784Z,89.08
2022-09-18T02:08:02.026Z,90.06
2022-09-18T02:14:25.411Z,89.26
2022-09-18T02:17:41.873Z,89.32
2022-09-18T02:23:45.768Z,87.79
2022-09-18T02:26:45.425Z,88.44
2022-09-18T02:29:30.039Z,86.85
2022-09-18T02:32:18.424Z,88.23
2022-09-18T02:35:08.511Z,88.94
2022-09-18T02:38:01.877Z,90.46
2022-09-18T02:43:44.440Z,89.15
2022-09-18T02:47:17.154Z,89.08
2022-09-18T02:50:08.851Z,88.50
2022-09-18T02:52:47.131Z,88.83
2022-09-18T02:55:31.620Z,89.05
2022-09-18T02:58:10.749Z,89.47
2022-09-18T03:00:59.503Z,89.17
2022-09-18T03:03:39.756Z,89.30
2022-09-18T03:06:20.216Z,89.16
2022-09-18T03:09:04.580Z,88.04
2022-09-18T03:11:36.386Z,88.56
2022-09-18T03:14:13.393Z,87.71
2022-09-18T03:16:44.677Z,87.84
2022-09-18T03:19:34.434Z,87.19
2022-09-18T03:22:10.405Z,86.85
2022-09-18T03:27:28.500Z,85.67
2022-09-18T03:29:58.757Z,85.07
2022-09-18T03:32:28.183Z,86.20
2022-09-18T03:35:06.176Z,85.89
2022-09-18T03:37:49.429Z,85.02
2022-09-18T03:40:24.429Z,84.71
2022-09-18T03:42:52.322Z,83.96
2022-09-18T03:45:50.549Z,83.87
2022-09-18T03:48:21.635Z,83.70
2022-09-18T03:50:55.500Z,82.57
2022-09-18T03:53:26.462Z,82.63
2022-09-18T03:56:02.721Z,82.54
2022-09-18T03:58:49.737Z,82.20
2022-09-18T04:01:17.698Z,85.15
2022-09-18T04:04:00.411Z,85.29
2022-09-18T04:06:33.761Z,84.96
2022-09-18T04:09:22.526Z,84.82
2022-09-18T04:11:51.903Z,84.69
2022-09-18T04:14:19.355Z,85.35
2022-09-18T04:17:00.414Z,84.79
2022-09-18T04:19:55.818Z,85.81
2022-09-18T04:22:35.276Z,85.94
2022-09-18T04:25:06.789Z,85.04
2022-09-18T04:28:00.024Z,85.84
2022-09-18T04:30:41.332Z,86.37
2022-09-18T04:33:09.416Z,87.37
2022-09-18T04:35:38.550Z,87.84
2022-09-18T04:38:15.476Z,87.40
2022-09-18T04:41:10.897Z,86.77
2022-09-18T04:43:43.683Z,86.74
2022-09-18T04:46:20.030Z,86.57
2022-09-18T04:48:50.921Z,87.07
2022-09-18T04:51:45.326Z,87.47
2022-09-18T04:57:21.220Z,88.86
2022-09-18T04:59:53.633Z,89.06
2022-09-18T05:02:25.201Z,88.31
2022-09-18T05:04:52.830Z,88.36
2022-09-18T05:07:20.616Z,87.46
2022-09-18T05:09:58.904Z,88.35
2022-09-18T05:12:32.088Z,87.86
2022-09-18T05:15:05.422Z,88.40
2022-09-18T05:17:36.311Z,87.17
2022-09-18T05:20:04.096Z,87.20
2022-09-18T05:22:43.940Z,86.06
2022-09-18T05:25:16.340Z,85.14
2022-09-18T05:27:55.574Z,85.39
2022-09-18T05:30:31.325Z,84.72
2022-09-18T05:33:30.449Z,85.72
2022-09-18T05:36:34.812Z,85.43
2022-09-18T05:42:10.208Z,85.22
2022-09-18T05:44:45.461Z,85.29
2022-09-18T05:47:15.844Z,83.96
2022-09-18T05:49:49.963Z,81.47
2022-09-18T05:52:20.282Z,81.89
2022-09-18T05:54:53.076Z,79.84
2022-09-18T05:57:20.209Z,77.21
2022-09-18T06:00:10.798Z,76.70
2022-09-18T06:02:41.444Z,73.12
2022-09-18T06:05:16.328Z,72.17
2022-09-18T06:07:46.447Z,70.62
2022-09-18T06:10:21.826Z,70.72
2022-09-18T06:12:52.188Z,70.62
2022-09-18T06:15:22.457Z,71.92
2022-09-18T06:18:10.184Z,71.87
2022-09-18T06:21:24.857Z,74.22
2022-09-18T06:24:19.149Z,73.89
2022-09-18T06:27:03.091Z,74.29
2022-09-18T06:29:58.230Z,75.09
2022-09-18T06:32:44.802Z,73.33
2022-09-18T06:35:23.534Z,66.07
2022-09-18T06:38:07.275Z,61.60
2022-09-18T06:40:44.163Z,60.06
2022-09-18T06:43:14.488Z,62.22
2022-09-18T06:46:18.134Z,66.93
2022-09-18T06:48:52.061Z,66.27
2022-09-18T06:51:40.496Z,68.29
2022-09-18T06:54:24.575Z,69.59
2022-09-18T06:57:45.606Z,69.69
2022-09-18T07:00:35.214Z,62.29
2022-09-18T07:03:45.197Z,56.97
2022-09-18T07:06:53.756Z,54.85
2022-09-18T07:09:34.059Z,54.37
2022-09-18T07:12:23.534Z,52.76
2022-09-18T07:15:10.235Z,53.40
2022-09-18T07:17:49.820Z,55.53
2022-09-18T07:23:23.121Z,63.45
2022-09-18T07:25:58.426Z,67.19
2022-09-18T07:28:59.171Z,68.84
2022-09-18T07:31:31.079Z,70.53
2022-09-18T07:34:07.016Z,71.47
2022-09-18T07:36:46.219Z,71.10
2022-09-18T07:39:14.070Z,70.19
2022-09-18T07:41:58.042Z,69.91
2022-09-18T07:44:43.125Z,68.96
2022-09-18T07:47:18.804Z,71.12
2022-09-18T07:50:08.641Z,72.51
2022-09-18T07:52:38.763Z,62.25
2022-09-18T07:55:23.111Z,60.84
2022-09-18T07:58:22.810Z,61.36
2022-09-18T08:01:03.303Z,65.64
2022-09-18T08:03:36.885Z,66.50
2022-09-18T08:06:20.260Z,64.35
2022-09-18T08:09:10.476Z,67.33
2022-09-18T08:11:49.896Z,69.12
2022-09-18T08:14:20.246Z,71.38
2022-09-18T08:17:12.547Z,72.66
2022-09-18T08:20:00.441Z,72.74
2022-09-18T08:22:33.171Z,72.31
2022-09-18T08:25:14.847Z,72.55
2022-09-18T08:27:57.930Z,62.12
2022-09-18T08:30:30.850Z,56.89
2022-09-18T08:33:30.879Z,56.48
2022-09-18T08:38:56.059Z,65.59
2022-09-18T08:42:26.142Z,66.05
2022-09-18T08:45:27.326Z,57.40
2022-09-18T08:48:31.667Z,60.85
2022-09-18T08:51:19.374Z,63.77
2022-09-18T08:55:01.517Z,68.16
2022-09-18T08:57:49.373Z,57.49
2022-09-18T09:01:48.814Z,56.14
2022-09-18T09:04:45.048Z,50.87
2022-09-18T09:08:25.724Z,50.04
2022-09-18T09:12:04.503Z,41.79
2022-09-18T09:19:31.450Z,32.26
2022-09-18T09:22:52.282Z,31.27
2022-09-18T09:25:53.055Z,31.22
2022-09-18T09:29:21.036Z,31.10
2022-09-18T09:32:27.225Z,34.78
2022-09-18T09:35:40.280Z,36.00
2022-09-18T09:38:39.688Z,38.94
2022-09-18T09:41:51.742Z,33.99
2022-09-18T09:44:47.909Z,34.74
2022-09-18T09:47:58.243Z,35.07
2022-09-18T09:51:04.412Z,40.72
2022-09-18T09:53:42.793Z,43.10
2022-09-18T09:56:34.824Z,45.47
2022-09-18T09:59:42.530Z,49.44
2022-09-18T10:02:55.131Z,51.37
2022-09-18T10:05:49.263Z,54.13
2022-09-18T10:09:31.518Z,56.00
2022-09-18T10:12:38.908Z,58.08
2022-09-18T10:15:45.232Z,58.32
2022-09-18T10:18:24.231Z,60.07
2022-09-18T10:21:04.453Z,61.49
2022-09-18T10:23:53.794Z,61.22
2022-09-18T10:26:56.978Z,62.99
2022-09-18T10:29:42.391Z,64.82
2022-09-18T10:32:46.344Z,67.25
2022-09-18T10:35:41.819Z,69.51
2022-09-18T10:38:43.248Z,72.47
2022-09-18T10:41:32.728Z,73.35
2022-09-18T10:44:52.742Z,72.50
2022-09-18T10:47:45.432Z,74.80
2022-09-18T10:50:34.483Z,73.92
2022-09-18T10:53:43.380Z,72.34
2022-09-18T10:56:40.208Z,70.52
2022-09-18T10:59:52.371Z,68.01
2022-09-18T11:02:27.590Z,52.66
2022-09-18T11:05:05.021Z,40.04
2022-09-18T11:07:55.827Z,38.05
2022-09-18T11:10:38.865Z,34.61
2022-09-18T11:13:11.854Z,31.24
2022-09-18T11:16:03.831Z,30.11
2022-09-18T11:18:36.121Z,28.91
2022-09-18T11:21:10.606Z,28.58
2022-09-18T11:23:50.531Z,26.90
2022-09-18T11:26:34.741Z,25.60
2022-09-18T11:29:32.212Z,25.38
2022-09-18T11:32:26.157Z,27.08
2022-09-18T11:35:08.334Z,29.06
2022-09-18T11:38:16.102Z,29.01
2022-09-18T11:40:54.828Z,26.52
2022-09-18T11:44:04.701Z,24.92
2022-09-18T11:46:51.608Z,24.62
2022-09-18T11:50:14.192Z,24.12
2022-09-18T11:56:00.364Z,22.42
2022-09-18T11:58:58.675Z,23.85
2022-09-18T12:01:38.661Z,23.21
2022-09-18T12:05:08.966Z,23.63
2022-09-18T12:07:48.016Z,25.92
2022-09-18T12:11:05.787Z,28.36
2022-09-18T12:13:36.726Z,28.36
2022-09-18T12:16:36.536Z,26.55
2022-09-18T12:19:52.126Z,23.61
2022-09-18T12:22:32.183Z,23.17
2022-09-18T12:24:59.493Z,23.62
2022-09-18T12:27:55.550Z,24.37
2022-09-18T12:30:34.142Z,23.98
2022-09-18T12:33:34.098Z,24.62
2022-09-18T12:36:38.646Z,24.28
2022-09-18T12:40:07.093Z,24.61
2022-09-18T12:43:11.936Z,28.33
2022-09-18T12:46:23.739Z,27.31
2022-09-18T12:49:47.646Z,29.64
2022-09-18T12:53:08.474Z,28.25
2022-09-18T12:55:59.745Z,26.63
2022-09-18T12:59:01.651Z,29.93
2022-09-18T13:01:48.358Z,32.49
2022-09-18T13:04:34.554Z,31.74
2022-09-18T13:08:14.002Z,30.40
2022-09-18T13:10:54.749Z,32.12
2022-09-18T13:13:53.798Z,33.46
2022-09-18T13:17:13.017Z,34.50
2022-09-18T13:19:59.814Z,33.55
2022-09-18T13:22:43.506Z,37.04
2022-09-18T13:25:37.882Z,41.84
2022-09-18T13:28:18.099Z,48.27
2022-09-18T13:34:21.384Z,51.83
2022-09-18T13:37:43.331Z,52.53
2022-09-18T13:40:58.347Z,49.29
2022-09-18T13:43:49.462Z,48.28
2022-09-18T13:46:49.361Z,48.37
2022-09-18T13:49:59.034Z,50.03
2022-09-18T13:52:42.568Z,50.98
2022-09-18T13:55:18.627Z,51.82
2022-09-18T13:57:50.203Z,53.61
2022-09-18T14:00:24.383Z,54.59
2022-09-18T14:03:14.892Z,50.91
2022-09-18T14:05:47.231Z,49.71
2022-09-18T14:08:35.163Z,47.95
2022-09-18T14:11:15.979Z,43.34
2022-09-18T14:13:56.090Z,39.79
2022-09-18T14:16:33.447Z,40.95
2022-09-18T14:19:32.815Z,42.04
2022-09-18T14:22:04.392Z,42.20
2022-09-18T14:24:39.633Z,44.29
2022-09-18T14:28:01.335Z,45.67
2022-09-18T14:30:31.909Z,44.72
2022-09-18T14:33:12.123Z,45.77
2022-09-18T14:38:57.172Z,47.15
2022-09-18T14:41:33.714Z,47.33
2022-09-18T14:44:07.099Z,48.57
2022-09-18T14:46:38.919Z,47.53
2022-09-18T14:49:37.322Z,49.69
2022-09-18T14:52:23.408Z,50.13
2022-09-18T14:55:11.984Z,51.55
2022-09-18T14:58:06.883Z,53.54
2022-09-18T15:00:47.172Z,56.18
2022-09-18T15:03:29.880Z,58.27
2022-09-18T15:06:30.290Z,60.53
2022-09-18T15:08:59.183Z,61.94
2022-09-18T15:11:46.681Z,62.08
2022-09-18T15:14:23.513Z,61.10
2022-09-18T15:17:03.673Z,58.77
2022-09-18T15:19:37.464Z,56.77
2022-09-18T15:22:22.298Z,56.64
2022-09-18T15:24:55.572Z,56.45
2022-09-18T15:27:26.676Z,54.78
2022-09-18T15:30:11.615Z,56.08
2022-09-18T15:32:46.458Z,56.83
2022-09-18T15:35:28.646Z,57.90
2022-09-18T15:38:22.016Z,58.08
2022-09-18T15:40:59.756Z,58.87
2022-09-18T15:43:44.824Z,60.10
2022-09-18T15:46:44.813Z,60.70
2022-09-18T15:49:40.942Z,60.43
2022-09-18T15:52:55.725Z,60.42
2022-09-18T15:55:54.022Z,60.26
2022-09-18T15:58:54.426Z,57.31
2022-09-18T16:01:32.289Z,56.07
2022-09-18T16:04:33.551Z,56.71
2022-09-18T16:07:29.044Z,56.38
2022-09-18T16:10:02.731Z,56.14
2022-09-18T16:12:40.380Z,57.22
2022-09-18T16:16:00.580Z,56.94
2022-09-18T16:18:40.523Z,56.73
2022-09-18T16:21:22.973Z,56.97
2022-09-18T16:24:08.468Z,57.54
2022-09-18T16:26:40.749Z,56.99
2022-09-18T16:29:22.737Z,57.94
2022-09-18T16:31:53.048Z,58.58
2022-09-18T16:34:22.873Z,59.09
2022-09-18T16:37:05.427Z,59.56
2022-09-18T16:39:42.235Z,60.05
2022-09-18T16:42:31.737Z,59.99
2022-09-18T16:45:02.758Z,60.72
2022-09-18T16:47:33.364Z,61.59
2022-09-18T16:50:02.263Z,62.11
2022-09-18T16:52:34.207Z,62.12
2022-09-18T16:55:02.040Z,62.60
2022-09-18T16:57:40.360Z,63.71
2022-09-18T17:00:11.051Z,63.27
2022-09-18T17:02:42.079Z,64.48
2022-09-18T17:05:10.108Z,64.19
2022-09-18T17:07:38.479Z,65.03
2022-09-18T17:10:13.305Z,65.71
2022-09-18T17:12:43.147Z,66.04
2022-09-18T17:15:14.157Z,66.64
2022-09-18T17:17:41.993Z,66.31
2022-09-18T17:20:30.408Z,66.70
2022-09-18T17:23:03.847Z,67.95
2022-09-18T17:25:31.232Z,67.23
2022-09-18T17:28:05.382Z,67.55
2022-09-18T17:30:37.718Z,67.36
2022-09-18T17:33:18.568Z,67.43
2022-09-18T17:35:47.831Z,67.24
2022-09-18T17:38:23.846Z,68.55
2022-09-18T17:41:05.897Z,69.27
2022-09-18T17:43:38.415Z,69.57
2022-09-18T17:46:14.936Z,70.05
2022-09-18T17:48:44.928Z,70.43
2022-09-18T17:51:20.869Z,70.46
2022-09-18T17:53:59.171Z,70.60
2022-09-18T17:56:34.080Z,70.80
2022-09-18T17:59:12.566Z,70.77
2022-09-18T18:04:16.878Z,70.68
2022-09-18T18:06:49.192Z,70.83
2022-09-18T18:09:20.704Z,70.98
2022-09-18T18:11:48.861Z,71.42
2022-09-18T18:14:16.462Z,72.68
2022-09-18T18:16:44.461Z,73.02
2022-09-18T18:19:13.717Z,73.04
2022-09-18T18:21:44.338Z,73.68
2022-09-18T18:24:16.627Z,74.13
2022-09-18T18:26:51.540Z,74.21
2022-09-18T18:29:21.627Z,74.73
2022-09-18T18:31:52.316Z,75.10
2022-09-18T18:34:25.519Z,75.35
2022-09-18T18:36:53.250Z,74.64
2022-09-18T18:39:21.541Z,74.87
2022-09-18T18:41:50.066Z,74.85
2022-09-18T18:44:18.706Z,75.04
2022-09-18T18:46:47.736Z,74.32
2022-09-18T18:49:19.146Z,75.14
2022-09-18T18:51:49.347Z,75.03
2022-09-18T18:54:26.605Z,75.84
2022-09-18T18:56:54.969Z,74.74
2022-09-18T18:59:24.514Z,75.30
2022-09-18T19:01:59.189Z,75.03
2022-09-18T19:04:27.625Z,75.73
2022-09-18T19:06:58.626Z,75.26
2022-09-18T19:09:31.184Z,76.60
2022-09-18T19:12:01.065Z,76.43
2022-09-18T19:14:34.796Z,76.90
2022-09-18T19:17:02.416Z,77.56
2022-09-18T19:19:32.864Z,77.45
2022-09-18T19:22:02.886Z,77.76
2022-09-18T19:24:31.893Z,77.01
2022-09-18T19:27:04.184Z,78.22
2022-09-18T19:29:32.115Z,79.39
2022-09-18T19:32:03.365Z,79.93
2022-09-18T19:34:47.175Z,79.35
2022-09-18T19:37:18.343Z,79.78
2022-09-18T19:39:49.556Z,78.83
2022-09-18T19:42:19.586Z,80.17
2022-09-18T19:44:52.456Z,80.20
2022-09-18T19:47:40.165Z,79.60
2022-09-18T19:50:24.833Z,80.18
2022-09-18T19:52:52.463Z,80.51
2022-09-18T19:55:22.195Z,80.21
2022-09-18T19:57:53.405Z,80.96
2022-09-18T20:00:22.002Z,81.68
2022-09-18T20:02:55.513Z,80.78
2022-09-18T20:05:23.186Z,79.97
2022-09-18T20:07:50.951Z,81.21
2022-09-18T20:10:23.194Z,79.93
2022-09-18T20:12:52.726Z,80.99
2022-09-18T20:15:23.257Z,81.00
2022-09-18T20:17:57.083Z,81.08
2022-09-18T20:20:28.831Z,81.09
2022-09-18T20:22:59.098Z,81.33
2022-09-18T20:25:29.467Z,81.59
2022-09-18T20:27:59.346Z,81.44
2022-09-18T20:30:32.767Z,81.81
2022-09-18T20:33:06.447Z,82.06
2022-09-18T20:35:38.335Z,81.93
2022-09-18T20:38:08.781Z,81.44
2022-09-18T20:40:36.508Z,81.62
2022-09-18T20:43:04.541Z,81.33
2022-09-18T20:45:31.945Z,81.84
2022-09-18T20:47:59.745Z,81.93
2022-09-18T20:50:28.386Z,81.87
2022-09-18T20:52:56.265Z,82.32
2022-09-18T20:55:26.392Z,82.46
2022-09-18T20:57:53.810Z,81.47
2022-09-18T21:00:25.663Z,82.24
2022-09-18T21:02:56.423Z,81.35
2022-09-18T21:05:23.985Z,81.50
2022-09-18T21:07:57.330Z,81.14
2022-09-18T21:10:24.943Z,81.87
2022-09-18T21:12:52.047Z,81.92
2022-09-18T21:15:22.053Z,82.09
2022-09-18T21:17:52.415Z,82.58
2022-09-18T21:20:25.782Z,80.90
2022-09-18T21:23:11.878Z,80.95
2022-09-18T21:25:39.247Z,81.17
2022-09-18T21:28:07.008Z,80.76
2022-09-18T21:30:36.738Z,80.16
2022-09-18T21:33:04.510Z,80.57
2022-09-18T21:35:31.903Z,80.95
2022-09-18T21:37:59.488Z,81.03
2022-09-18T21:40:28.148Z,81.81
2022-09-18T21:43:00.392Z,80.98
2022-09-18T21:45:27.915Z,81.36
2022-09-18T21:47:55.635Z,80.34
2022-09-18T21:50:27.610Z,80.84
2022-09-18T21:53:00.201Z,81.10
2022-09-18T21:55:37.068Z,81.27
2022-09-18T21:58:06.117Z,81.33
2022-09-18T22:00:38.512Z,80.87
2022-09-18T22:03:06.635Z,80.71
2022-09-18T22:05:38.828Z,80.53
2022-09-18T22:08:13.800Z,80.34
2022-09-18T22:11:37.901Z,80.00
2022-09-18T22:14:15.378Z,80.40
2022-09-18T22:16:47.280Z,80.37
2022-09-18T22:19:17.560Z,81.26
2022-09-18T22:21:51.936Z,82.22
2022-09-18T22:24:23.591Z,82.32
2022-09-18T22:27:06.295Z,83.07
2022-09-18T22:29:41.381Z,82.25
2022-09-18T22:32:11.882Z,81.89
2022-09-18T22:34:43.305Z,82.96
2022-09-18T22:37:18.892Z,83.32
2022-09-18T22:39:47.120Z,83.39
2022-09-18T22:42:27.618Z,84.42
2022-09-18T22:44:57.834Z,85.31
2022-09-18T22:47:25.045Z,86.00
2022-09-18T22:49:57.477Z,85.61
2022-09-18T22:52:35.294Z,85.50
2022-09-18T22:55:05.928Z,86.32
2022-09-18T22:57:38.867Z,88.29
2022-09-18T23:00:14.651Z,87.66
2022-09-18T23:02:46.630Z,88.21
2022-09-18T23:05:19.777Z,87.69
2022-09-18T23:07:50.250Z,87.82
2022-09-18T23:10:18.131Z,88.42
2022-09-18T23:12:48.437Z,87.83
2022-09-18T23:15:18.515Z,87.87
2022-09-18T23:17:56.525Z,88.53
2022-09-18T23:20:35.373Z,87.61
2022-09-18T23:23:03.054Z,87.76
2022-09-18T23:25:41.471Z,87.90
2022-09-18T23:28:13.595Z,88.38
2022-09-18T23:30:46.409Z,87.83
2022-09-18T23:33:16.505Z,88.17
2022-09-18T23:35:47.232Z,88.00
2022-09-18T23:38:16.639Z,87.95
2022-09-18T23:40:44.097Z,89.29
2022-09-18T23:43:20.236Z,89.15
2022-09-18T23:45:49.585Z,88.25
2022-09-18T23:48:19.585Z,87.44
2022-09-18T23:50:56.841Z,87.18
2022-09-18T23:53:24.835Z,86.37
2022-09-18T23:56:08.651Z,86.33
2022-09-18T23:58:48.624Z,86.42
